Airfield :
LOGIN :

Register | Disclaimer

   EN    FR    IT 

 










Legend :    VFR   Marginal VFR   IFR   Intensive IFR   Very Intensive IFR
Visi :
Ceiling :
>= 8 km
>= 3000ft
5 to 8 km
1000 to 3000 ft
1500m to 5 km
500 to 1000 ft
800 to 1500m
200 to 500 ft
< 800m
< 200 ft
Symbols :   Thunderstorms  Fog  Heavy snow  Heavy precipitations  Wind > 20 kt
SIGMETs :     Misc.  Thunderstorms  Icing  Turbulence  Mountain Waves  Volcanic Ashes






- Airport Elevation : 0 ft


ETEB - Ansbach Army Heliport

EXPIRED METARs :
  • 011055Z AUTO 03008KT 9999 FEW011 03/M00 A3017 RMK AO2 SLP252 T00261002 $
  • 010955Z AUTO 01008KT 9999 FEW007 02/00 A3018 RMK AO2 SLP258 T00190001 $

TAF AMD TAF ETEB
Valid from the 01 at 07:00 until the 02 at 13:00 UTC


010720Z 0107/0213 01006KT 9999 OVC026 QNH3016INS
BECMG 0111/0112 02009KT 9999 BKN020 OVC030 QNH3018INS
BECMG 0115/0116 03009KT 9999 BKN010 OVC030 QNH3016INS
BECMG 0118/0119 05009KT 9999 BKN007 OVC010 QNH3016INS
BECMG 0201/0202 07009KT 8000 -SHRA SCT005 OVC060 QNH3009INS
BECMG 0207/0208 08006KT 9999 NSW SCT010 OVC050 QNH3007INS TX04/0112Z TN01/0206Z



MET'MAP, your aeronautical weather chart ! - Copyright ORBIFLY December 2007 - Disclaimer

ORBIFLY MET'MAP TEAM :

Programming & Development : Alexandra Zaïnal
Original concept : Baudouin d'Aumeries
Technical & hardware support : Manuel Goepfert
Assistance : Marc-Olivier Méhu




SOURCES & CREDITS :

   NOAA